sensor_id;sensor_type;location;lat;lon;timestamp;pressure;altitude;pressure_sealevel;temperature;humidity
6144;BME280;3103;49.492;8.474;2023-05-23T00:01:13;100373.19;;;20.49;79.61
6144;BME280;3103;49.492;8.474;2023-05-23T00:03:42;100373.59;;;20.42;80.20
6144;BME280;3103;49.492;8.474;2023-05-23T00:06:09;100371.16;;;20.27;80.90
6144;BME280;3103;49.492;8.474;2023-05-23T00:08:36;100371.88;;;20.32;80.23
6144;BME280;3103;49.492;8.474;2023-05-23T00:11:03;100374.16;;;20.39;80.03
6144;BME280;3103;49.492;8.474;2023-05-23T00:13:30;100368.34;;;20.45;79.95
6144;BME280;3103;49.492;8.474;2023-05-23T00:16:00;100372.06;;;20.36;79.97
6144;BME280;3103;49.492;8.474;2023-05-23T00:18:28;100374.09;;;20.44;79.52
6144;BME280;3103;49.492;8.474;2023-05-23T00:20:56;100372.56;;;20.38;80.19
6144;BME280;3103;49.492;8.474;2023-05-23T00:23:23;100376.66;;;20.13;81.10
6144;BME280;3103;49.492;8.474;2023-05-23T00:25:50;100375.22;;;20.15;81.06
6144;BME280;3103;49.492;8.474;2023-05-23T00:28:21;100370.75;;;20.33;80.29
6144;BME280;3103;49.492;8.474;2023-05-23T00:30:48;100372.97;;;20.31;80.40
6144;BME280;3103;49.492;8.474;2023-05-23T00:33:15;100373.59;;;20.28;80.42
6144;BME280;3103;49.492;8.474;2023-05-23T00:35:42;100370.91;;;20.01;81.67
6144;BME280;3103;49.492;8.474;2023-05-23T00:38:09;100374.50;;;20.24;81.02
6144;BME280;3103;49.492;8.474;2023-05-23T00:40:37;100369.47;;;20.03;81.36
6144;BME280;3103;49.492;8.474;2023-05-23T00:43:04;100370.66;;;20.11;80.96
6144;BME280;3103;49.492;8.474;2023-05-23T00:45:31;100374.72;;;20.13;80.92
6144;BME280;3103;49.492;8.474;2023-05-23T00:47:58;100375.53;;;20.00;81.35
6144;BME280;3103;49.492;8.474;2023-05-23T00:50:26;100371.88;;;20.19;80.80
6144;BME280;3103;49.492;8.474;2023-05-23T00:52:59;100373.19;;;20.07;81.27
6144;BME280;3103;49.492;8.474;2023-05-23T00:55:27;100369.78;;;20.02;81.34
6144;BME280;3103;49.492;8.474;2023-05-23T00:57:54;100367.94;;;19.97;81.89
6144;BME280;3103;49.492;8.474;2023-05-23T01:00:23;100375.25;;;20.02;81.89
6144;BME280;3103;49.492;8.474;2023-05-23T01:02:51;100373.00;;;19.90;81.84
6144;BME280;3103;49.492;8.474;2023-05-23T01:05:20;100374.22;;;19.84;82.19
6144;BME280;3103;49.492;8.474;2023-05-23T01:07:49;100373.81;;;19.91;82.29
6144;BME280;3103;49.492;8.474;2023-05-23T01:10:19;100380.69;;;19.88;82.36
6144;BME280;3103;49.492;8.474;2023-05-23T01:13:05;100381.50;;;19.89;82.33
6144;BME280;3103;49.492;8.474;2023-05-23T01:18:37;100380.09;;;20.05;81.03
6144;BME280;3103;49.492;8.474;2023-05-23T01:21:14;100378.03;;;19.83;82.06
6144;BME280;3103;49.492;8.474;2023-05-23T01:24:02;100380.25;;;19.67;82.75
6144;BME280;3103;49.492;8.474;2023-05-23T01:29:13;100379.38;;;19.72;82.29
6144;BME280;3103;49.492;8.474;2023-05-23T01:31:45;100374.13;;;19.75;82.27
6144;BME280;3103;49.492;8.474;2023-05-23T01:34:14;100381.31;;;19.85;81.93
6144;BME280;3103;49.492;8.474;2023-05-23T01:36:44;100383.50;;;19.83;82.13
6144;BME280;3103;49.492;8.474;2023-05-23T01:39:11;100384.69;;;19.63;83.10
6144;BME280;3103;49.492;8.474;2023-05-23T01:41:39;100384.69;;;19.63;83.12
6144;BME280;3103;49.492;8.474;2023-05-23T01:44:06;100389.03;;;19.64;83.13
6144;BME280;3103;49.492;8.474;2023-05-23T01:46:34;100394.78;;;19.63;82.85
6144;BME280;3103;49.492;8.474;2023-05-23T01:49:06;100393.41;;;19.79;82.31
6144;BME280;3103;49.492;8.474;2023-05-23T01:51:34;100404.31;;;19.79;82.27
6144;BME280;3103;49.492;8.474;2023-05-23T01:54:02;100397.44;;;19.81;81.49
6144;BME280;3103;49.492;8.474;2023-05-23T01:56:29;100397.34;;;19.73;81.81
6144;BME280;3103;49.492;8.474;2023-05-23T01:58:56;100402.78;;;19.73;81.84
6144;BME280;3103;49.492;8.474;2023-05-23T02:01:23;100396.56;;;19.53;82.94
6144;BME280;3103;49.492;8.474;2023-05-23T02:03:50;100407.72;;;19.57;82.92
6144;BME280;3103;49.492;8.474;2023-05-23T02:06:17;100401.19;;;19.72;82.11
6144;BME280;3103;49.492;8.474;2023-05-23T02:08:46;100402.78;;;19.59;82.46
6144;BME280;3103;49.492;8.474;2023-05-23T02:11:13;100397.91;;;19.56;82.72
6144;BME280;3103;49.492;8.474;2023-05-23T02:13:40;100402.28;;;19.71;82.21
6144;BME280;3103;49.492;8.474;2023-05-23T02:16:07;100421.75;;;19.64;82.17
6144;BME280;3103;49.492;8.474;2023-05-23T02:18:34;100415.91;;;19.71;81.64
6144;BME280;3103;49.492;8.474;2023-05-23T02:21:04;100419.66;;;19.75;81.37
6144;BME280;3103;49.492;8.474;2023-05-23T02:23:31;100420.66;;;19.46;82.67
6144;BME280;3103;49.492;8.474;2023-05-23T02:25:57;100419.94;;;19.60;82.39
6144;BME280;3103;49.492;8.474;2023-05-23T02:28:24;100422.75;;;19.68;81.73
6144;BME280;3103;49.492;8.474;2023-05-23T02:30:51;100424.66;;;19.68;82.27
6144;BME280;3103;49.492;8.474;2023-05-23T02:33:18;100423.53;;;19.55;82.42
6144;BME280;3103;49.492;8.474;2023-05-23T02:35:45;100428.09;;;19.60;82.35
6144;BME280;3103;49.492;8.474;2023-05-23T02:38:13;100431.78;;;19.50;82.34
6144;BME280;3103;49.492;8.474;2023-05-23T02:40:41;100432.97;;;19.44;82.99
6144;BME280;3103;49.492;8.474;2023-05-23T02:43:07;100432.84;;;19.35;83.63
6144;BME280;3103;49.492;8.474;2023-05-23T02:45:36;100439.31;;;19.39;83.51
6144;BME280;3103;49.492;8.474;2023-05-23T02:48:03;100443.34;;;19.42;83.24
6144;BME280;3103;49.492;8.474;2023-05-23T02:50:30;100447.41;;;19.44;83.17
6144;BME280;3103;49.492;8.474;2023-05-23T02:52:57;100446.50;;;19.49;82.99
6144;BME280;3103;49.492;8.474;2023-05-23T02:55:23;100437.63;;;19.43;82.74
6144;BME280;3103;49.492;8.474;2023-05-23T02:57:51;100441.78;;;19.22;83.91
6144;BME280;3103;49.492;8.474;2023-05-23T03:00:17;100444.69;;;19.44;82.89
6144;BME280;3103;49.492;8.474;2023-05-23T03:02:49;100446.66;;;19.39;82.66
6144;BME280;3103;49.492;8.474;2023-05-23T03:05:17;100452.13;;;19.58;81.35
6144;BME280;3103;49.492;8.474;2023-05-23T03:07:44;100450.13;;;19.44;81.74
6144;BME280;3103;49.492;8.474;2023-05-23T03:10:11;100448.38;;;19.35;82.27
6144;BME280;3103;49.492;8.474;2023-05-23T03:12:38;100449.75;;;19.51;81.09
6144;BME280;3103;49.492;8.474;2023-05-23T03:15:07;100453.81;;;19.35;81.71
6144;BME280;3103;49.492;8.474;2023-05-23T03:17:36;100457.50;;;19.25;82.45
6144;BME280;3103;49.492;8.474;2023-05-23T03:20:04;100456.03;;;19.33;81.78
6144;BME280;3103;49.492;8.474;2023-05-23T03:22:31;100449.19;;;19.35;80.87
6144;BME280;3103;49.492;8.474;2023-05-23T03:24:58;100443.28;;;19.28;81.71
6144;BME280;3103;49.492;8.474;2023-05-23T03:27:25;100454.28;;;19.23;81.56
6144;BME280;3103;49.492;8.474;2023-05-23T03:29:52;100454.59;;;19.03;82.11
6144;BME280;3103;49.492;8.474;2023-05-23T03:32:19;100448.66;;;19.01;82.26
6144;BME280;3103;49.492;8.474;2023-05-23T03:34:47;100455.72;;;19.02;81.60
6144;BME280;3103;49.492;8.474;2023-05-23T03:37:14;100460.56;;;19.05;81.45
6144;BME280;3103;49.492;8.474;2023-05-23T03:39:43;100460.31;;;19.20;80.39
6144;BME280;3103;49.492;8.474;2023-05-23T03:42:10;100458.94;;;19.04;80.35
6144;BME280;3103;49.492;8.474;2023-05-23T03:44:36;100460.97;;;19.12;79.91
6144;BME280;3103;49.492;8.474;2023-05-23T03:47:05;100468.69;;;19.23;79.12
6144;BME280;3103;49.492;8.474;2023-05-23T03:49:34;100466.50;;;19.07;78.81
6144;BME280;3103;49.492;8.474;2023-05-23T03:52:01;100469.59;;;19.00;79.43
6144;BME280;3103;49.492;8.474;2023-05-23T03:54:28;100472.56;;;19.04;79.02
6144;BME280;3103;49.492;8.474;2023-05-23T03:56:55;100472.69;;;18.93;79.39
6144;BME280;3103;49.492;8.474;2023-05-23T03:59:22;100471.88;;;18.93;79.24
6144;BME280;3103;49.492;8.474;2023-05-23T04:01:50;100473.56;;;19.08;78.46
6144;BME280;3103;49.492;8.474;2023-05-23T04:04:17;100477.50;;;19.02;78.35
6144;BME280;3103;49.492;8.474;2023-05-23T04:06:47;100483.16;;;19.05;77.66
6144;BME280;3103;49.492;8.474;2023-05-23T04:09:14;100485.34;;;19.03;76.96
6144;BME280;3103;49.492;8.474;2023-05-23T04:11:44;100481.41;;;18.72;78.10
6144;BME280;3103;49.492;8.474;2023-05-23T04:14:12;100482.47;;;18.76;77.64
6144;BME280;3103;49.492;8.474;2023-05-23T04:16:39;100482.56;;;18.89;77.16
6144;BME280;3103;49.492;8.474;2023-05-23T04:19:11;100491.06;;;18.64;77.26
6144;BME280;3103;49.492;8.474;2023-05-23T04:21:38;100487.97;;;18.71;77.00
6144;BME280;3103;49.492;8.474;2023-05-23T04:24:07;100494.38;;;18.80;76.36
6144;BME280;3103;49.492;8.474;2023-05-23T04:26:34;100495.72;;;18.82;75.89
6144;BME280;3103;49.492;8.474;2023-05-23T04:29:03;100494.91;;;18.82;75.38
6144;BME280;3103;49.492;8.474;2023-05-23T04:31:32;100498.81;;;18.94;74.74
6144;BME280;3103;49.492;8.474;2023-05-23T04:34:00;100494.97;;;18.95;73.92
6144;BME280;3103;49.492;8.474;2023-05-23T04:36:28;100504.09;;;18.86;74.07
6144;BME280;3103;49.492;8.474;2023-05-23T04:38:56;100511.31;;;18.77;74.31
6144;BME280;3103;49.492;8.474;2023-05-23T04:41:23;100499.78;;;18.61;74.91
6144;BME280;3103;49.492;8.474;2023-05-23T04:44:04;100506.88;;;18.57;75.31
6144;BME280;3103;49.492;8.474;2023-05-23T04:46:42;100509.28;;;18.87;74.42
6144;BME280;3103;49.492;8.474;2023-05-23T04:49:20;100520.50;;;18.81;74.62
6144;BME280;3103;49.492;8.474;2023-05-23T04:51:48;100520.38;;;18.91;73.53
6144;BME280;3103;49.492;8.474;2023-05-23T04:54:24;100523.00;;;18.96;73.54
6144;BME280;3103;49.492;8.474;2023-05-23T04:56:53;100522.81;;;18.92;73.12
6144;BME280;3103;49.492;8.474;2023-05-23T04:59:27;100531.09;;;18.82;73.25
6144;BME280;3103;49.492;8.474;2023-05-23T05:01:53;100531.38;;;18.81;73.51
6144;BME280;3103;49.492;8.474;2023-05-23T05:04:20;100535.50;;;18.78;73.00
6144;BME280;3103;49.492;8.474;2023-05-23T05:06:49;100534.88;;;19.05;72.01
6144;BME280;3103;49.492;8.474;2023-05-23T05:09:17;100531.47;;;18.94;72.58
6144;BME280;3103;49.492;8.474;2023-05-23T05:11:45;100536.50;;;18.87;72.18
6144;BME280;3103;49.492;8.474;2023-05-23T05:14:13;100530.38;;;18.95;71.49
6144;BME280;3103;49.492;8.474;2023-05-23T05:16:40;100531.94;;;19.02;70.13
6144;BME280;3103;49.492;8.474;2023-05-23T05:19:08;100543.47;;;19.12;70.01
6144;BME280;3103;49.492;8.474;2023-05-23T05:21:35;100548.38;;;19.15;69.85
6144;BME280;3103;49.492;8.474;2023-05-23T05:24:02;100556.28;;;19.12;70.23
6144;BME280;3103;49.492;8.474;2023-05-23T05:26:29;100550.72;;;19.22;69.56
6144;BME280;3103;49.492;8.474;2023-05-23T05:28:56;100546.66;;;19.19;69.41
6144;BME280;3103;49.492;8.474;2023-05-23T05:31:24;100556.81;;;19.14;69.34
6144;BME280;3103;49.492;8.474;2023-05-23T05:33:52;100565.66;;;19.06;69.29
6144;BME280;3103;49.492;8.474;2023-05-23T05:36:18;100564.53;;;19.07;69.27
6144;BME280;3103;49.492;8.474;2023-05-23T05:38:46;100566.66;;;19.10;68.41
6144;BME280;3103;49.492;8.474;2023-05-23T05:41:14;100559.50;;;18.95;68.89
6144;BME280;3103;49.492;8.474;2023-05-23T05:43:46;100566.44;;;19.06;68.47
6144;BME280;3103;49.492;8.474;2023-05-23T05:46:13;100576.97;;;19.13;68.06
6144;BME280;3103;49.492;8.474;2023-05-23T05:48:40;100572.41;;;18.89;68.47
6144;BME280;3103;49.492;8.474;2023-05-23T05:51:11;100575.03;;;18.94;68.50
6144;BME280;3103;49.492;8.474;2023-05-23T05:53:40;100584.00;;;18.95;68.03
6144;BME280;3103;49.492;8.474;2023-05-23T05:56:06;100583.91;;;18.81;68.77
6144;BME280;3103;49.492;8.474;2023-05-23T05:58:35;100585.94;;;18.94;68.27
6144;BME280;3103;49.492;8.474;2023-05-23T06:01:06;100583.22;;;18.94;68.40
6144;BME280;3103;49.492;8.474;2023-05-23T06:03:33;100598.00;;;18.88;68.32
6144;BME280;3103;49.492;8.474;2023-05-23T06:06:00;100592.72;;;18.73;68.88
6144;BME280;3103;49.492;8.474;2023-05-23T06:08:27;100601.94;;;18.77;68.90
6144;BME280;3103;49.492;8.474;2023-05-23T06:10:54;100602.38;;;18.84;68.76
6144;BME280;3103;49.492;8.474;2023-05-23T06:13:23;100598.31;;;19.06;68.01
6144;BME280;3103;49.492;8.474;2023-05-23T06:15:52;100603.19;;;19.09;67.67
6144;BME280;3103;49.492;8.474;2023-05-23T06:18:19;100602.34;;;19.32;67.59
6144;BME280;3103;49.492;8.474;2023-05-23T06:20:46;100603.28;;;19.22;67.41
6144;BME280;3103;49.492;8.474;2023-05-23T06:23:15;100600.50;;;19.46;66.98
6144;BME280;3103;49.492;8.474;2023-05-23T06:25:43;100603.81;;;19.43;66.16
6144;BME280;3103;49.492;8.474;2023-05-23T06:28:11;100614.22;;;19.60;65.94
6144;BME280;3103;49.492;8.474;2023-05-23T06:30:38;100621.28;;;19.80;65.32
6144;BME280;3103;49.492;8.474;2023-05-23T06:33:06;100618.63;;;19.75;65.01
6144;BME280;3103;49.492;8.474;2023-05-23T06:35:33;100616.19;;;19.92;64.42
6144;BME280;3103;49.492;8.474;2023-05-23T06:38:00;100625.69;;;19.95;64.40
6144;BME280;3103;49.492;8.474;2023-05-23T06:40:27;100627.09;;;19.92;64.24
6144;BME280;3103;49.492;8.474;2023-05-23T06:42:54;100641.03;;;19.91;64.07
6144;BME280;3103;49.492;8.474;2023-05-23T06:45:38;100629.59;;;19.89;64.01
6144;BME280;3103;49.492;8.474;2023-05-23T06:48:05;100637.50;;;19.71;64.31
6144;BME280;3103;49.492;8.474;2023-05-23T06:50:34;100643.59;;;19.82;64.42
6144;BME280;3103;49.492;8.474;2023-05-23T06:53:02;100643.78;;;19.48;65.04
6144;BME280;3103;49.492;8.474;2023-05-23T06:55:29;100649.16;;;19.53;65.34
6144;BME280;3103;49.492;8.474;2023-05-23T06:57:56;100655.72;;;19.52;65.56
6144;BME280;3103;49.492;8.474;2023-05-23T07:00:23;100651.09;;;19.52;65.53
6144;BME280;3103;49.492;8.474;2023-05-23T07:03:06;100654.19;;;19.46;66.03
6144;BME280;3103;49.492;8.474;2023-05-23T07:05:33;100657.63;;;19.51;66.12
6144;BME280;3103;49.492;8.474;2023-05-23T07:08:07;100656.13;;;19.21;66.30
6144;BME280;3103;49.492;8.474;2023-05-23T07:10:36;100666.78;;;19.18;66.72
6144;BME280;3103;49.492;8.474;2023-05-23T07:13:16;100667.03;;;19.21;66.28
6144;BME280;3103;49.492;8.474;2023-05-23T07:15:43;100667.53;;;19.23;65.84
6144;BME280;3103;49.492;8.474;2023-05-23T07:18:12;100665.41;;;18.96;66.95
6144;BME280;3103;49.492;8.474;2023-05-23T07:20:40;100670.38;;;19.13;66.59
6144;BME280;3103;49.492;8.474;2023-05-23T07:23:13;100667.38;;;19.15;66.38
6144;BME280;3103;49.492;8.474;2023-05-23T07:25:41;100670.81;;;19.02;66.74
6144;BME280;3103;49.492;8.474;2023-05-23T07:28:27;100671.13;;;18.95;67.17
6144;BME280;3103;49.492;8.474;2023-05-23T07:30:55;100669.56;;;19.13;66.78
6144;BME280;3103;49.492;8.474;2023-05-23T07:33:24;100673.75;;;19.29;65.80
6144;BME280;3103;49.492;8.474;2023-05-23T07:35:54;100675.69;;;19.47;65.21
6144;BME280;3103;49.492;8.474;2023-05-23T07:38:21;100663.66;;;19.91;64.10
6144;BME280;3103;49.492;8.474;2023-05-23T07:40:48;100671.75;;;20.48;62.08
6144;BME280;3103;49.492;8.474;2023-05-23T07:43:33;100672.75;;;20.52;61.58
6144;BME280;3103;49.492;8.474;2023-05-23T07:45:59;100676.72;;;20.45;61.48
6144;BME280;3103;49.492;8.474;2023-05-23T07:48:27;100679.00;;;20.20;62.09
6144;BME280;3103;49.492;8.474;2023-05-23T07:50:54;100675.16;;;19.88;62.39
6144;BME280;3103;49.492;8.474;2023-05-23T07:53:22;100673.56;;;20.20;62.32
6144;BME280;3103;49.492;8.474;2023-05-23T07:55:49;100677.31;;;20.24;61.29
6144;BME280;3103;49.492;8.474;2023-05-23T07:58:16;100671.25;;;20.27;60.75
6144;BME280;3103;49.492;8.474;2023-05-23T08:00:44;100678.75;;;20.35;58.82
6144;BME280;3103;49.492;8.474;2023-05-23T08:03:25;100677.81;;;20.26;58.64
6144;BME280;3103;49.492;8.474;2023-05-23T08:06:02;100685.50;;;20.24;58.77
6144;BME280;3103;49.492;8.474;2023-05-23T08:08:29;100685.69;;;19.76;58.75
6144;BME280;3103;49.492;8.474;2023-05-23T08:11:16;100682.50;;;19.88;58.65
6144;BME280;3103;49.492;8.474;2023-05-23T08:13:48;100685.00;;;19.84;59.29
6144;BME280;3103;49.492;8.474;2023-05-23T08:16:35;100684.44;;;19.87;59.33
6144;BME280;3103;49.492;8.474;2023-05-23T08:19:07;100681.25;;;19.80;59.40
6144;BME280;3103;49.492;8.474;2023-05-23T08:21:35;100685.38;;;19.96;59.00
6144;BME280;3103;49.492;8.474;2023-05-23T08:24:02;100681.78;;;20.01;58.87
6144;BME280;3103;49.492;8.474;2023-05-23T08:26:29;100679.13;;;19.77;58.98
6144;BME280;3103;49.492;8.474;2023-05-23T08:29:03;100681.38;;;19.70;59.13
6144;BME280;3103;49.492;8.474;2023-05-23T08:31:31;100681.47;;;19.83;59.03
6144;BME280;3103;49.492;8.474;2023-05-23T08:34:00;100690.84;;;19.59;59.46
6144;BME280;3103;49.492;8.474;2023-05-23T08:36:28;100693.03;;;19.56;60.41
6144;BME280;3103;49.492;8.474;2023-05-23T08:38:54;100695.59;;;19.67;59.73
6144;BME280;3103;49.492;8.474;2023-05-23T08:41:29;100692.28;;;19.70;59.45
6144;BME280;3103;49.492;8.474;2023-05-23T08:44:01;100683.22;;;19.55;59.30
6144;BME280;3103;49.492;8.474;2023-05-23T08:46:32;100696.41;;;19.67;59.21
6144;BME280;3103;49.492;8.474;2023-05-23T08:49:02;100689.84;;;20.25;58.26
6144;BME280;3103;49.492;8.474;2023-05-23T08:51:31;100689.69;;;20.35;57.27
6144;BME280;3103;49.492;8.474;2023-05-23T08:54:05;100693.16;;;20.22;57.91
6144;BME280;3103;49.492;8.474;2023-05-23T08:56:35;100687.88;;;20.77;56.88
6144;BME280;3103;49.492;8.474;2023-05-23T08:59:03;100690.34;;;21.19;56.08
6144;BME280;3103;49.492;8.474;2023-05-23T09:01:31;100693.28;;;21.37;54.66
6144;BME280;3103;49.492;8.474;2023-05-23T09:04:04;100693.41;;;21.31;54.93
6144;BME280;3103;49.492;8.474;2023-05-23T09:06:38;100702.69;;;21.17;54.91
6144;BME280;3103;49.492;8.474;2023-05-23T09:09:05;100698.75;;;21.37;54.08
6144;BME280;3103;49.492;8.474;2023-05-23T09:11:33;100689.09;;;21.67;53.40
6144;BME280;3103;49.492;8.474;2023-05-23T09:14:03;100692.91;;;21.79;52.43
6144;BME280;3103;49.492;8.474;2023-05-23T09:16:36;100691.69;;;21.85;53.39
6144;BME280;3103;49.492;8.474;2023-05-23T09:19:11;100695.09;;;21.55;53.66
6144;BME280;3103;49.492;8.474;2023-05-23T09:21:44;100696.44;;;21.44;54.32
6144;BME280;3103;49.492;8.474;2023-05-23T09:24:17;100693.28;;;21.37;54.21
6144;BME280;3103;49.492;8.474;2023-05-23T09:26:48;100689.25;;;21.34;54.74
6144;BME280;3103;49.492;8.474;2023-05-23T09:29:18;100688.31;;;21.11;55.21
6144;BME280;3103;49.492;8.474;2023-05-23T09:31:47;100699.34;;;21.06;55.51
6144;BME280;3103;49.492;8.474;2023-05-23T09:34:14;100701.16;;;21.11;55.34
6144;BME280;3103;49.492;8.474;2023-05-23T09:36:42;100694.88;;;21.24;55.01
6144;BME280;3103;49.492;8.474;2023-05-23T09:39:12;100702.22;;;21.42;54.47
6144;BME280;3103;49.492;8.474;2023-05-23T09:41:39;100698.97;;;21.90;53.69
6144;BME280;3103;49.492;8.474;2023-05-23T09:44:09;100702.44;;;22.18;52.69
6144;BME280;3103;49.492;8.474;2023-05-23T09:46:36;100704.44;;;22.26;52.19
6144;BME280;3103;49.492;8.474;2023-05-23T09:49:16;100699.97;;;22.30;52.75
6144;BME280;3103;49.492;8.474;2023-05-23T09:51:56;100704.66;;;22.61;51.60
6144;BME280;3103;49.492;8.474;2023-05-23T09:54:23;100701.50;;;22.67;50.84
6144;BME280;3103;49.492;8.474;2023-05-23T09:56:51;100700.06;;;22.78;50.44
6144;BME280;3103;49.492;8.474;2023-05-23T09:59:20;100703.56;;;22.39;50.74
6144;BME280;3103;49.492;8.474;2023-05-23T10:01:50;100700.84;;;22.03;51.12
6144;BME280;3103;49.492;8.474;2023-05-23T10:04:21;100693.50;;;21.90;52.09
6144;BME280;3103;49.492;8.474;2023-05-23T10:06:58;100701.72;;;21.76;52.86
6144;BME280;3103;49.492;8.474;2023-05-23T10:09:32;100705.59;;;21.75;53.35
6144;BME280;3103;49.492;8.474;2023-05-23T10:12:35;100711.91;;;21.34;54.02
6144;BME280;3103;49.492;8.474;2023-05-23T10:15:07;100715.34;;;21.13;55.33
6144;BME280;3103;49.492;8.474;2023-05-23T10:17:40;100719.44;;;20.83;56.66
6144;BME280;3103;49.492;8.474;2023-05-23T10:20:15;100725.00;;;20.78;57.59
6144;BME280;3103;49.492;8.474;2023-05-23T10:22:42;100719.03;;;20.75;58.41
6144;BME280;3103;49.492;8.474;2023-05-23T10:25:09;100716.44;;;20.52;58.83
6144;BME280;3103;49.492;8.474;2023-05-23T10:27:37;100720.50;;;20.68;58.99
6144;BME280;3103;49.492;8.474;2023-05-23T10:30:07;100724.38;;;20.81;58.35
6144;BME280;3103;49.492;8.474;2023-05-23T10:32:37;100722.81;;;21.07;58.05
6144;BME280;3103;49.492;8.474;2023-05-23T10:35:22;100720.22;;;21.29;57.15
6144;BME280;3103;49.492;8.474;2023-05-23T10:38:11;100726.88;;;21.37;56.58
6144;BME280;3103;49.492;8.474;2023-05-23T10:40:51;100721.81;;;21.58;56.16
6144;BME280;3103;49.492;8.474;2023-05-23T10:43:25;100727.91;;;21.55;56.19
6144;BME280;3103;49.492;8.474;2023-05-23T10:45:54;100718.81;;;21.46;55.83
6144;BME280;3103;49.492;8.474;2023-05-23T10:48:31;100718.13;;;21.26;56.54
6144;BME280;3103;49.492;8.474;2023-05-23T10:53:33;100716.34;;;21.58;55.74
6144;BME280;3103;49.492;8.474;2023-05-23T10:56:00;100718.38;;;21.52;55.11
6144;BME280;3103;49.492;8.474;2023-05-23T10:58:29;100710.38;;;21.15;55.48
6144;BME280;3103;49.492;8.474;2023-05-23T11:01:01;100718.34;;;21.11;56.02
6144;BME280;3103;49.492;8.474;2023-05-23T11:03:53;100726.50;;;21.30;56.09
6144;BME280;3103;49.492;8.474;2023-05-23T11:06:40;100721.09;;;21.11;56.40
6144;BME280;3103;49.492;8.474;2023-05-23T11:09:13;100716.94;;;21.00;56.60
6144;BME280;3103;49.492;8.474;2023-05-23T11:14:31;100720.97;;;20.89;56.25
6144;BME280;3103;49.492;8.474;2023-05-23T11:19:38;100725.44;;;20.85;56.91
6144;BME280;3103;49.492;8.474;2023-05-23T11:22:08;100731.09;;;20.88;56.56
6144;BME280;3103;49.492;8.474;2023-05-23T11:24:52;100730.63;;;21.14;56.00
6144;BME280;3103;49.492;8.474;2023-05-23T11:27:46;100732.53;;;21.13;55.68
6144;BME280;3103;49.492;8.474;2023-05-23T11:30:15;100728.88;;;20.90;56.30
6144;BME280;3103;49.492;8.474;2023-05-23T11:32:53;100726.16;;;21.04;56.73
6144;BME280;3103;49.492;8.474;2023-05-23T11:35:21;100739.25;;;21.34;55.57
6144;BME280;3103;49.492;8.474;2023-05-23T11:37:48;100716.97;;;21.55;54.22
6144;BME280;3103;49.492;8.474;2023-05-23T11:40:25;100720.84;;;21.40;54.18
6144;BME280;3103;49.492;8.474;2023-05-23T11:42:53;100713.53;;;21.36;54.76
6144;BME280;3103;49.492;8.474;2023-05-23T11:45:21;100717.19;;;21.31;55.26
6144;BME280;3103;49.492;8.474;2023-05-23T11:47:48;100722.19;;;21.10;55.55
6144;BME280;3103;49.492;8.474;2023-05-23T11:50:15;100722.09;;;21.01;56.15
6144;BME280;3103;49.492;8.474;2023-05-23T11:52:42;100723.41;;;20.90;56.84
6144;BME280;3103;49.492;8.474;2023-05-23T11:55:09;100732.53;;;20.99;57.13
6144;BME280;3103;49.492;8.474;2023-05-23T11:57:39;100724.81;;;20.88;57.07
6144;BME280;3103;49.492;8.474;2023-05-23T12:00:07;100724.38;;;20.81;57.97
6144;BME280;3103;49.492;8.474;2023-05-23T12:02:39;100722.41;;;20.86;57.30
6144;BME280;3103;49.492;8.474;2023-05-23T12:05:11;100724.00;;;20.73;57.93
6144;BME280;3103;49.492;8.474;2023-05-23T12:07:43;100721.75;;;20.75;57.93
6144;BME280;3103;49.492;8.474;2023-05-23T12:10:10;100722.16;;;20.83;57.77
6144;BME280;3103;49.492;8.474;2023-05-23T12:12:37;100720.38;;;20.92;57.30
6144;BME280;3103;49.492;8.474;2023-05-23T12:15:04;100705.59;;;20.93;57.35
6144;BME280;3103;49.492;8.474;2023-05-23T12:17:32;100717.03;;;21.09;56.72
6144;BME280;3103;49.492;8.474;2023-05-23T12:19:59;100721.31;;;21.15;55.93
6144;BME280;3103;49.492;8.474;2023-05-23T12:22:28;100714.13;;;21.19;56.00
6144;BME280;3103;49.492;8.474;2023-05-23T12:24:55;100723.97;;;21.33;55.34
6144;BME280;3103;49.492;8.474;2023-05-23T12:27:33;100729.84;;;21.41;54.34
6144;BME280;3103;49.492;8.474;2023-05-23T12:30:12;100722.13;;;21.56;53.36
6144;BME280;3103;49.492;8.474;2023-05-23T12:32:40;100724.09;;;21.78;53.44
6144;BME280;3103;49.492;8.474;2023-05-23T12:35:09;100716.53;;;21.75;54.10
6144;BME280;3103;49.492;8.474;2023-05-23T12:37:40;100727.13;;;21.90;54.01
6144;BME280;3103;49.492;8.474;2023-05-23T12:40:18;100726.03;;;21.78;54.64
6144;BME280;3103;49.492;8.474;2023-05-23T12:42:50;100718.53;;;21.83;54.25
6144;BME280;3103;49.492;8.474;2023-05-23T12:45:19;100717.75;;;21.69;54.82
6144;BME280;3103;49.492;8.474;2023-05-23T12:47:46;100716.44;;;21.53;55.05
6144;BME280;3103;49.492;8.474;2023-05-23T12:50:13;100721.81;;;21.72;54.80
6144;BME280;3103;49.492;8.474;2023-05-23T12:52:40;100726.13;;;21.86;54.88
6144;BME280;3103;49.492;8.474;2023-05-23T12:55:07;100722.19;;;21.79;54.79
6144;BME280;3103;49.492;8.474;2023-05-23T12:57:34;100724.25;;;21.59;55.32
6144;BME280;3103;49.492;8.474;2023-05-23T13:00:01;100715.53;;;21.16;56.38
6144;BME280;3103;49.492;8.474;2023-05-23T13:02:34;100717.19;;;21.45;56.07
6144;BME280;3103;49.492;8.474;2023-05-23T13:05:01;100711.06;;;21.75;55.19
6144;BME280;3103;49.492;8.474;2023-05-23T13:07:29;100712.72;;;21.99;54.82
6144;BME280;3103;49.492;8.474;2023-05-23T13:09:56;100712.28;;;21.83;54.58
6144;BME280;3103;49.492;8.474;2023-05-23T13:12:23;100710.22;;;21.88;54.33
6144;BME280;3103;49.492;8.474;2023-05-23T13:14:50;100711.47;;;21.82;54.81
6144;BME280;3103;49.492;8.474;2023-05-23T13:17:17;100707.72;;;21.64;54.74
6144;BME280;3103;49.492;8.474;2023-05-23T13:19:44;100717.75;;;21.69;54.72
6144;BME280;3103;49.492;8.474;2023-05-23T13:22:11;100720.75;;;21.81;54.21
6144;BME280;3103;49.492;8.474;2023-05-23T13:24:39;100712.00;;;21.93;53.83
6144;BME280;3103;49.492;8.474;2023-05-23T13:27:06;100701.06;;;21.93;53.66
6144;BME280;3103;49.492;8.474;2023-05-23T13:29:33;100710.16;;;22.16;53.23
6144;BME280;3103;49.492;8.474;2023-05-23T13:32:00;100717.50;;;22.29;52.96
6144;BME280;3103;49.492;8.474;2023-05-23T13:34:27;100717.09;;;22.22;52.87
6144;BME280;3103;49.492;8.474;2023-05-23T13:36:54;100709.56;;;22.05;53.18